Station: Nhill Aerodrome  

  Atmospheric Gas Attenuation - ITU Rec 676-11   ----------------- dB/100km -----------------
Date Time Temp RH % AH g/m3 Dew Point Wind Direction Speed kph Gust kph Barometer mB Rainfall Since 9am 24GHz 47GHz 76GHz 122GHz 134GHz 241GHz
08/05 12:30 15.2 67 8.7 9.1 32 41 1027 0 19.7 26.2 40.1 105.1 99.1 340.8
08/05 12:20 15.6 66 8.78 9.3 30 35 1027.1 0 19.9 26.2 40.2 105.4 99.6 342.8
08/05 12:10 15.5 65 8.59 9 30 35 1027.1 0 19.5 25.9 39.5 103.5 97.3 334.6
08/05 12:00 14.9 70 8.92 9.5 32 41 1027.1 0 20.2 26.6 41.1 107.9 102.4 352.4
08/05 11:50 15.6 67 8.91 9.5 32 37 1027.3 0 20.1 26.4 40.8 106.8 101.3 348.8
08/05 11:40 14.8 70 8.87 9.4 33 37 1027.4 0 20.1 26.6 41.0 107.5 101.9 350.6
08/05 11:30 14.6 71 8.88 9.4 33 44 1027.3 0 20.1 26.6 41.2 107.9 102.2 351.9
08/05 11:20 14.9 72 9.18 9.9 33 41 1027.5 0 20.8 27.1 42.2 110.7 105.9 364.6
08/05 11:10 14.6 73 9.14 9.8 32 35 1027.6 0 20.7 27.1 42.2 110.7 105.8 364.2
08/05 11:00 14.1 75 9.1 9.7 32 39 1027.6 0 20.6 27.2 42.3 111.0 105.9 364.6
08/05 10:50 14 75 9.05 9.6 30 33 1027.8 0 20.5 27.1 42.2 110.6 105.4 362.8
08/05 10:40 14 76 9.17 9.8 24 30 1027.9 0 20.8 27.3 42.7 111.9 107.0 368.5
08/05 10:30 14.3 79 9.71 10.7 24 35 1027.7 0 21.9 28.1 44.8 117.5 113.9 392.8
08/05 10:20 13.1 83 9.47 10.3 32 37 1027.9 0 21.5 28.1 44.4 116.6 112.4 387.2
08/05 10:10 12.9 84 9.47 10.3 33 39 1027.9 0 21.5 28.2 44.5 116.9 112.7 388.2
08/05 10:00 13.2 81 9.3 10 28 35 1027.7 0 21.1 27.8 43.7 114.5 109.9 378.5
08/05 09:50 13.6 79 9.3 10 32 37 1027.9 0 21.1 27.7 43.4 114.0 109.3 376.6
08/05 09:40 13 83 9.41 10.2 30 35 1027.9 0 21.3 28.0 44.2 116.1 111.7 384.8
08/05 09:30 12.9 89 10.03 11.1 24 32 1027.8 0 22.7 29.1 46.9 123.3 120.6 415.8
08/05 09:20 12.5 91 10.01 11.1 26 30 1027.9 0 22.7 29.2 47.1 123.7 120.9 417.0
08/05 09:10 12.2 90 9.71 10.6 26 28 1027.8 0 22.0 28.8 46.0 120.7 117.1 403.6
08/05 09:00 12.7 88 9.8 10.8 24 33 1027.5 0 22.2 28.8 46.1 120.9 117.6 405.3
08/05 08:50 12.5 88 9.68 10.6 28 32 1027.5 0 21.9 28.7 45.7 119.8 116.2 400.4
08/05 08:40 12.3 89 9.67 10.5 26 30 1027.3 0 21.9 28.7 45.7 120.0 116.4 400.9
08/05 08:30 12.2 91 9.82 10.8 26 35 1027 0 22.3 29.0 46.4 121.9 118.6 408.8
08/05 08:20 12.1 92 9.87 10.8 28 30 1026.9 0 22.4 29.1 46.7 122.6 119.5 411.8
08/05 08:10 11.9 94 9.96 11 28 33 1026.8 0 22.6 29.3 47.2 123.9 121.1 417.3
08/05 08:00 11.9 95 10.06 11.1 28 35 1026.6 0 22.8 29.5 47.6 125.1 122.5 422.3
08/05 07:50 11.6 96 9.98 11 32 35 1026.6 0 22.6 29.4 47.4 124.6 121.8 419.9
08/05 07:40 11.5 95 9.81 10.7 24 30 1026.4 0 22.3 29.2 46.8 122.8 119.5 411.8
08/05 07:30 11.5 94 9.71 10.6 26 35 1026.2 0 22.1 29.0 46.3 121.6 118.0 406.7
08/05 07:20 11.6 93 9.67 10.5 28 35 1026.3 0 22.0 28.9 46.1 121.0 117.3 404.3
08/05 07:10 11.7 93 9.73 10.6 28 35 1026.1 0 22.1 28.9 46.3 121.5 118.0 406.7
08/05 07:00 11.7 93 9.73 10.6 28 35 1026 0 22.1 28.9 46.3 121.5 118.0 406.6
08/05 06:50 11.6 95 9.88 10.8 30 32 1026.1 0 22.4 29.2 47.0 123.4 120.3 414.7
08/05 06:40 11.5 96 9.92 10.9 28 32 1026 0 22.5 29.3 47.2 124.0 121.0 417.2
08/05 06:30 11.2 96 9.73 10.6 22 30 1026 0 22.1 29.1 46.6 122.3 118.8 409.3
08/05 06:20 11.1 96 9.67 10.5 26 30 1026 0 22.0 29.0 46.4 121.7 118.1 406.8
08/05 06:10 11.1 95 9.57 10.3 26 30 1025.8 0 21.8 28.9 45.9 120.6 116.6 401.7
08/05 06:00 11.3 94 9.59 10.4 26 35 1025.9 0 21.8 28.8 45.9 120.5 116.6 401.7
08/05 05:50 11.3 93 9.49 10.2 26 30 1025.8 0 21.6 28.6 45.4 119.3 115.2 396.7
08/05 05:40 11.4 90 9.24 9.8 28 32 1025.8 0 21.1 28.2 44.3 116.3 111.5 383.8
08/05 05:30 11.6 89 9.25 9.9 26 35 1025.6 0 21.1 28.1 44.2 116.1 111.3 383.2
08/05 05:20 11.6 89 9.25 9.9 26 30 1025.5 0 21.1 28.1 44.2 116.1 111.3 383.2
08/05 05:10 11.5 89 9.19 9.8 26 32 1025.5 0 21.0 28.1 44.0 115.5 110.6 380.7
08/05 05:00 11.5 89 9.19 9.8 28 37 1025.3 0 21.0 28.0 44.0 115.5 110.6 380.7
08/05 04:50 11.5 90 9.3 9.9 28 32 1025.2 0 21.2 28.2 44.5 116.8 112.1 386.1
08/05 04:40 11.4 90 9.24 9.8 26 30 1025.2 0 21.1 28.2 44.3 116.2 111.4 383.6
08/05 04:30 11.5 89 9.19 9.8 28 37 1025.3 0 21.0 28.0 44.0 115.5 110.6 380.7
08/05 04:20 11.4 88 9.03 9.5 28 35 1025.3 0 20.6 27.8 43.4 113.8 108.5 373.3
08/05 04:10 11.5 88 9.09 9.6 26 32 1025.4 0 20.7 27.9 43.6 114.4 109.2 375.8
08/05 04:00 11.5 87 8.99 9.4 28 37 1025.4 0 20.5 27.7 43.2 113.3 107.8 370.9
08/05 03:50 11.5 86 8.88 9.2 30 37 1025.4 0 20.3 27.5 42.7 112.0 106.3 365.6
08/05 03:40 11.6 86 8.94 9.3 33 41 1025.4 0 20.4 27.6 42.9 112.5 107.0 368.0
08/05 03:30 11.6 85 8.84 9.2 28 35 1025.6 0 20.2 27.4 42.5 111.4 105.6 363.2
08/05 03:20 11.6 85 8.84 9.2 32 37 1025.7 0 20.2 27.4 42.5 111.4 105.6 363.2
08/05 03:10 11.5 84 8.68 8.9 28 35 1025.8 0 19.9 27.2 41.9 109.8 103.5 356.0
08/05 03:00 11.5 84 8.68 8.9 28 37 1025.8 0 19.9 27.2 41.9 109.8 103.5 356.0
08/05 02:50 11.5 83 8.57 8.7 26 30 1025.8 0 19.6 27.0 41.4 108.6 102.0 350.7
08/05 02:40 11.4 82 8.42 8.4 20 24 1026 0 19.3 26.8 40.9 107.1 100.1 344.0
08/05 02:30 11.6 81 8.42 8.5 26 32 1026 0 19.3 26.7 40.8 106.8 99.8 343.1
08/05 02:20 11.7 81 8.47 8.6 26 28 1026.1 0 19.4 26.8 40.9 107.2 100.4 345.1
08/05 02:10 11.6 82 8.52 8.6 32 37 1026.2 0 19.5 26.9 41.2 107.9 101.2 348.0
08/05 02:00 11.4 82 8.42 8.4 24 30 1026.1 0 19.3 26.8 40.9 107.1 100.1 344.0
08/05 01:50 11.6 81 8.42 8.5 22 28 1026.2 0 19.3 26.7 40.8 106.8 99.9 343.2
08/05 01:40 11.6 81 8.42 8.5 28 33 1026.2 0 19.3 26.7 40.8 106.8 99.9 343.2
08/05 01:30 11.6 81 8.42 8.5 26 37 1026.2 0 19.3 26.7 40.8 106.8 99.9 343.2
08/05 01:20 11.4 82 8.42 8.4 28 33 1026.3 0 19.3 26.8 40.9 107.1 100.1 344.1
08/05 01:10 11.2 83 8.41 8.4 22 28 1026.5 0 19.3 26.9 40.9 107.3 100.3 344.5
08/05 01:00 10.9 85 8.46 8.5 22 26 1026.5 0 19.4 27.0 41.3 108.3 101.4 348.3
08/05 00:50 10.6 85 8.3 8.2 20 24 1026.6 0 19.1 26.9 40.8 106.9 99.5 341.9
08/05 00:40 10.8 83 8.21 8 24 28 1026.6 0 18.9 26.6 40.3 105.6 98.1 336.7
08/05 00:30 11.1 81 8.16 8 28 41 1026.7 0 18.8 26.5 40.0 104.7 97.0 333.1
08/05 00:20 11.3 79 8.06 7.8 24 30 1026.7 0 18.5 26.3 39.5 103.3 95.4 327.5
08/05 00:10 11.2 79 8.01 7.7 22 26 1026.6 0 18.4 26.2 39.3 102.9 94.8 325.5
08/05 00:00 11.1 80 8.06 7.8 22 30 1026.5 0 18.5 26.3 39.5 103.5 95.6 328.3
07/05 23:50 11.1 80 8.06 7.8 20 22 1026.5 0 18.5 26.3 39.5 103.5 95.6 328.3
07/05 23:40 11.1 80 8.06 7.8 22 26 1026.6 0 18.5 26.3 39.6 103.6 95.6 328.3
07/05 23:30 11.1 81 8.16 8 22 32 1026.5 0 18.8 26.5 40.0 104.6 97.0 333.0
07/05 23:20 10.8 82 8.11 7.9 24 26 1026.8 0 18.7 26.5 39.9 104.5 96.7 332.0
07/05 23:10 10.7 83 8.15 7.9 20 24 1026.8 0 18.8 26.6 40.1 105.1 97.4 334.3
07/05 23:00 10.4 85 8.19 8 20 28 1026.9 0 18.9 26.7 40.5 106.0 98.3 337.6
07/05 22:50 10.1 84 7.95 7.5 19 22 1027 0 18.4 26.4 39.6 103.7 95.4 327.3
07/05 22:40 10.1 83 7.85 7.3 20 26 1027.1 0 18.1 26.3 39.2 102.6 94.0 322.6
07/05 22:30 10.1 82 7.76 7.2 20 26 1027.1 0 18.0 26.1 38.8 101.6 92.8 318.3
07/05 22:20 10.5 81 7.86 7.4 20 22 1027.2 0 18.1 26.2 39.1 102.2 93.7 321.4
07/05 22:10 10.7 80 7.86 7.4 20 24 1027.4 0 18.1 26.1 39.0 102.0 93.5 320.7
07/05 22:00 10.6 80 7.81 7.3 20 28 1027.3 0 18.0 26.1 38.8 101.5 92.9 318.7
07/05 21:50 10.4 80 7.71 7.1 20 22 1027.3 0 17.8 26.0 38.5 100.7 91.8 314.7
07/05 21:40 10.3 80 7.66 7 20 24 1027.2 0 17.7 25.9 38.3 100.3 91.2 312.8
07/05 21:30 9.9 80 7.47 6.6 20 26 1027 0 17.3 25.7 37.7 98.7 89.1 305.3
07/05 21:20 9.9 79 7.38 6.4 19 24 1027 0 17.1 25.5 37.4 97.7 87.9 301.0
07/05 21:10 10.2 78 7.42 6.5 28 32 1026.8 0 17.2 25.5 37.4 97.7 88.1 301.7
07/05 21:00 10.4 77 7.42 6.5 26 37 1026.8 0 17.2 25.5 37.3 97.5 87.9 301.0
07/05 20:50 10 77 7.24 6.2 20 26 1026.7 0 16.8 25.3 36.7 96.0 85.9 294.0
07/05 20:40 10.2 76 7.23 6.2 24 30 1027.2 0 16.8 25.2 36.6 95.7 85.6 292.9
07/05 20:30 10.2 76 7.23 6.2 20 28 1027.3 0 16.8 25.2 36.6 95.7 85.6 293.0
07/05 20:20 10.1 75 7.09 5.9 20 22 1027.3 0 16.5 25.0 36.1 94.3 83.8 286.8
07/05 20:10 10.2 75 7.14 6 22 24 1027.4 0 16.6 25.1 36.3 94.8 84.4 288.8
07/05 20:00 10.3 73 6.99 5.7 20 28 1027.1 0 16.3 24.8 35.6 93.0 82.3 281.4

Last Refresh: 08-May-2026 12:08:29

Bureau of Meteorology